www.cux-wetter.de
Wetterdaten: Sonntag, 31.05.2009
Datum Zeit Temp. A. Feuchte A. Luftdruck Regen Wind Richtung Richtung Sonnenschein Solar Taupunkt Windchill Windben
31.05.2009 00:01 14,9 C 63 % 1025,5 hPa 0,0 l/m 16,0 km/h (3 Bft) N-NO 20 0 min 0 W/m 7,9 C 10,7 C 16,0 km/h (3 Bft)
31.05.2009 00:06 14,8 C 64 % 1025,5 hPa 0,0 l/m 12,9 km/h (3 Bft) N-NO 15 0 min 0 W/m 8,1 C 11,7 C 12,9 km/h (3 Bft)
31.05.2009 00:11 14,7 C 65 % 1025,5 hPa 0,0 l/m 16,4 km/h (3 Bft) NO 35 0 min 0 W/m 8,2 C 10,4 C 16,4 km/h (3 Bft)
31.05.2009 00:16 14,6 C 65 % 1025,5 hPa 0,0 l/m 16,9 km/h (3 Bft) NO 40 0 min 0 W/m 8,1 C 10,1 C 16,9 km/h (3 Bft)
31.05.2009 00:21 14,5 C 65 % 1025,5 hPa 0,0 l/m 12,8 km/h (3 Bft) NO 50 0 min 0 W/m 8,0 C 11,4 C 12,8 km/h (3 Bft)
31.05.2009 00:26 14,4 C 65 % 1025,5 hPa 0,0 l/m 15,0 km/h (3 Bft) NO 45 0 min 0 W/m 7,9 C 10,5 C 15,0 km/h (3 Bft)
31.05.2009 00:31 14,4 C 66 % 1025,5 hPa 0,0 l/m 15,5 km/h (3 Bft) NO 40 0 min 0 W/m 8,1 C 10,3 C 15,5 km/h (3 Bft)
31.05.2009 00:36 14,3 C 66 % 1025,5 hPa 0,0 l/m 15,6 km/h (3 Bft) NO 45 0 min 0 W/m 8,0 C 10,1 C 15,6 km/h (3 Bft)
31.05.2009 00:41 14,2 C 67 % 1025,5 hPa 0,0 l/m 23,2 km/h (4 Bft) NO 35 0 min 0 W/m 8,2 C 7,9 C 23,2 km/h (4 Bft)
31.05.2009 00:46 14,1 C 67 % 1025,5 hPa 0,0 l/m 15,4 km/h (3 Bft) NO 35 0 min 0 W/m 8,1 C 10,0 C 15,4 km/h (3 Bft)
31.05.2009 00:51 14,1 C 67 % 1025,5 hPa 0,0 l/m 18,7 km/h (3 Bft) NO 45 0 min 0 W/m 8,1 C 8,9 C 18,7 km/h (3 Bft)
31.05.2009 00:56 14,0 C 67 % 1025,5 hPa 0,0 l/m 19,1 km/h (3 Bft) NO 35 0 min 0 W/m 8,0 C 8,7 C 19,1 km/h (3 Bft)
31.05.2009 01:01 13,9 C 67 % 1025,5 hPa 0,0 l/m 19,8 km/h (3 Bft) O 85 0 min 0 W/m 7,9 C 8,4 C 19,8 km/h (3 Bft)
31.05.2009 01:06 13,9 C 67 % 1025,5 hPa 0,0 l/m 11,5 km/h (2 Bft) O-NO 60 0 min 0 W/m 7,9 C 11,2 C 11,5 km/h (2 Bft)
31.05.2009 01:11 13,9 C 67 % 1025,5 hPa 0,0 l/m 15,0 km/h (3 Bft) O-NO 60 0 min 0 W/m 7,9 C 9,9 C 15,0 km/h (3 Bft)
31.05.2009 01:16 13,8 C 67 % 1025,5 hPa 0,0 l/m 10,6 km/h (2 Bft) NO 40 0 min 0 W/m 7,8 C 11,5 C 10,6 km/h (2 Bft)
31.05.2009 01:21 13,8 C 67 % 1025,5 hPa 0,0 l/m 12,4 km/h (2 Bft) N 5 0 min 0 W/m 7,8 C 10,7 C 12,4 km/h (2 Bft)
31.05.2009 01:26 13,8 C 67 % 1025,5 hPa 0,0 l/m 13,0 km/h (3 Bft) N 5 0 min 0 W/m 7,8 C 10,5 C 13,0 km/h (3 Bft)
31.05.2009 01:31 13,7 C 67 % 1025,5 hPa 0,0 l/m 21,5 km/h (4 Bft) O-NO 70 0 min 0 W/m 7,7 C 7,7 C 21,5 km/h (4 Bft)
31.05.2009 01:36 13,6 C 66 % 1025,5 hPa 0,0 l/m 21,6 km/h (4 Bft) O 90 0 min 0 W/m 7,4 C 7,5 C 21,6 km/h (4 Bft)
31.05.2009 01:41 13,6 C 66 % 1025,5 hPa 0,0 l/m 13,9 km/h (3 Bft) NO 35 0 min 0 W/m 7,4 C 9,9 C 13,9 km/h (3 Bft)
31.05.2009 01:46 13,6 C 66 % 1025,5 hPa 0,0 l/m 14,9 km/h (3 Bft) O 80 0 min 0 W/m 7,4 C 9,5 C 14,9 km/h (3 Bft)
31.05.2009 01:51 13,6 C 66 % 1025,5 hPa 0,0 l/m 8,7 km/h (2 Bft) N-NO 20 0 min 0 W/m 7,4 C 12,2 C 8,7 km/h (2 Bft)
31.05.2009 01:56 13,5 C 66 % 1025,5 hPa 0,0 l/m 15,0 km/h (3 Bft) NO 50 0 min 0 W/m 7,3 C 9,4 C 15,0 km/h (3 Bft)
31.05.2009 02:01 13,5 C 66 % 1025,5 hPa 0,0 l/m 11,5 km/h (2 Bft) N-NO 15 0 min 0 W/m 7,3 C 10,8 C 11,5 km/h (2 Bft)
31.05.2009 02:06 13,4 C 66 % 1025,5 hPa 0,0 l/m 18,0 km/h (3 Bft) NO 55 0 min 0 W/m 7,2 C 8,3 C 18,0 km/h (3 Bft)
31.05.2009 02:11 13,4 C 66 % 1025,5 hPa 0,0 l/m 11,1 km/h (2 Bft) N-NO 15 0 min 0 W/m 7,2 C 10,8 C 11,1 km/h (2 Bft)
31.05.2009 02:16 13,3 C 66 % 1025,5 hPa 0,0 l/m 16,8 km/h (3 Bft) O-NO 60 0 min 0 W/m 7,1 C 8,5 C 16,8 km/h (3 Bft)
31.05.2009 02:21 13,2 C 66 % 1025,5 hPa 0,0 l/m 13,6 km/h (3 Bft) NO 45 0 min 0 W/m 7,0 C 9,5 C 13,6 km/h (3 Bft)
31.05.2009 02:26 13,2 C 66 % 1025,5 hPa 0,0 l/m 16,1 km/h (3 Bft) O 90 0 min 0 W/m 7,0 C 8,6 C 16,1 km/h (3 Bft)
31.05.2009 02:31 13,2 C 66 % 1025,5 hPa 0,0 l/m 12,5 km/h (2 Bft) N 360 0 min 0 W/m 7,0 C 10,0 C 12,5 km/h (2 Bft)
31.05.2009 02:36 13,1 C 66 % 1025,5 hPa 0,0 l/m 11,5 km/h (2 Bft) NO 40 0 min 0 W/m 6,9 C 10,3 C 11,5 km/h (2 Bft)
31.05.2009 02:41 13,1 C 66 % 1025,5 hPa 0,0 l/m 11,6 km/h (2 Bft) O-NO 60 0 min 0 W/m 6,9 C 10,3 C 11,6 km/h (2 Bft)
31.05.2009 02:46 13,0 C 66 % 1025,5 hPa 0,0 l/m 12,1 km/h (2 Bft) N-NO 30 0 min 0 W/m 6,8 C 9,9 C 12,1 km/h (2 Bft)
31.05.2009 02:51 13,0 C 67 % 1025,5 hPa 0,0 l/m 8,8 km/h (2 Bft) N 5 0 min 0 W/m 7,0 C 11,5 C 8,8 km/h (2 Bft)
31.05.2009 02:56 13,0 C 67 % 1025,5 hPa 0,0 l/m 14,3 km/h (3 Bft) NW 305 0 min 0 W/m 7,0 C 9,0 C 14,3 km/h (3 Bft)
31.05.2009 03:01 13,0 C 67 % 1025,5 hPa 0,0 l/m 11,8 km/h (2 Bft) O-NO 60 0 min 0 W/m 7,0 C 10,1 C 11,8 km/h (2 Bft)
31.05.2009 03:06 12,9 C 67 % 1025,5 hPa 0,0 l/m 11,1 km/h (2 Bft) O-NO 70 0 min 0 W/m 6,9 C 10,3 C 11,1 km/h (2 Bft)
31.05.2009 03:11 12,9 C 67 % 1025,5 hPa 0,0 l/m 12,7 km/h (3 Bft) O-SO 105 0 min 0 W/m 6,9 C 9,6 C 12,7 km/h (3 Bft)
31.05.2009 03:16 12,9 C 67 % 1025,5 hPa 0,0 l/m 10,5 km/h (2 Bft) O 90 0 min 0 W/m 6,9 C 10,5 C 10,5 km/h (2 Bft)
31.05.2009 03:21 12,8 C 67 % 1025,5 hPa 0,0 l/m 6,8 km/h (2 Bft) NO 40 0 min 0 W/m 6,8 C 12,6 C 6,8 km/h (2 Bft)
31.05.2009 03:26 12,8 C 67 % 1025,5 hPa 0,0 l/m 6,1 km/h (2 Bft) NO 40 0 min 0 W/m 6,8 C 12,8 C 6,1 km/h (2 Bft)
31.05.2009 03:31 12,7 C 68 % 1025,5 hPa 0,0 l/m 7,0 km/h (2 Bft) O-NO 60 0 min 0 W/m 6,9 C 12,3 C 7,0 km/h (2 Bft)
31.05.2009 03:36 12,6 C 68 % 1025,5 hPa 0,0 l/m 8,9 km/h (2 Bft) O-NO 75 0 min 0 W/m 6,9 C 11,1 C 8,9 km/h (2 Bft)
31.05.2009 03:41 12,5 C 68 % 1025,5 hPa 0,0 l/m 9,3 km/h (2 Bft) O-SO 110 0 min 0 W/m 6,8 C 10,7 C 9,3 km/h (2 Bft)
31.05.2009 03:46 12,4 C 69 % 1025,5 hPa 0,0 l/m 11,6 km/h (2 Bft) O-NO 60 0 min 0 W/m 6,9 C 9,5 C 11,6 km/h (2 Bft)
31.05.2009 03:51 12,4 C 69 % 1025,5 hPa 0,0 l/m 5,2 km/h (1 Bft) O-NO 65 0 min 0 W/m 6,9 C 12,4 C 5,2 km/h (1 Bft)
31.05.2009 03:56 12,4 C 70 % 1025,5 hPa 0,0 l/m 12,0 km/h (2 Bft) O 85 0 min 0 W/m 7,1 C 9,3 C 12,0 km/h (2 Bft)
31.05.2009 04:01 12,4 C 70 % 1025,5 hPa 0,0 l/m 10,1 km/h (2 Bft) O 85 0 min 0 W/m 7,1 C 10,2 C 10,1 km/h (2 Bft)
31.05.2009 04:06 12,4 C 70 % 1025,5 hPa 0,0 l/m 10,1 km/h (2 Bft) O 85 0 min 0 W/m 7,1 C 10,2 C 10,1 km/h (2 Bft)
31.05.2009 04:11 12,4 C 70 % 1025,5 hPa 0,0 l/m 12,9 km/h (3 Bft) O-SO 120 0 min 0 W/m 7,1 C 8,9 C 12,9 km/h (3 Bft)
31.05.2009 04:16 12,4 C 70 % 1025,5 hPa 0,0 l/m 10,0 km/h (2 Bft) O 95 0 min 0 W/m 7,1 C 10,2 C 10,0 km/h (2 Bft)
31.05.2009 04:21 12,4 C 70 % 1025,5 hPa 0,0 l/m 16,0 km/h (3 Bft) O 85 0 min 0 W/m 7,1 C 7,7 C 16,0 km/h (3 Bft)
31.05.2009 04:26 12,4 C 70 % 1025,5 hPa 0,0 l/m 15,6 km/h (3 Bft) O-NO 70 0 min 0 W/m 7,1 C 7,8 C 15,6 km/h (3 Bft)
31.05.2009 04:31 12,4 C 70 % 1025,5 hPa 0,0 l/m 6,9 km/h (2 Bft) O 95 0 min 0 W/m 7,1 C 12,1 C 6,9 km/h (2 Bft)
31.05.2009 04:36 12,4 C 71 % 1025,5 hPa 0,0 l/m 7,2 km/h (2 Bft) N-NO 30 0 min 0 W/m 7,3 C 11,9 C 7,2 km/h (2 Bft)
31.05.2009 04:41 12,4 C 71 % 1025,5 hPa 0,0 l/m 11,5 km/h (2 Bft) O-SO 105 0 min 0 W/m 7,3 C 9,5 C 11,5 km/h (2 Bft)
31.05.2009 04:46 12,4 C 71 % 1025,5 hPa 0,0 l/m 13,6 km/h (3 Bft) O-NO 70 0 min 0 W/m 7,3 C 8,6 C 13,6 km/h (3 Bft)
31.05.2009 04:51 12,4 C 71 % 1025,5 hPa 0,0 l/m 16,8 km/h (3 Bft) O 80 0 min 0 W/m 7,3 C 7,4 C 16,8 km/h (3 Bft)
31.05.2009 04:56 12,4 C 71 % 1025,5 hPa 0,0 l/m 13,8 km/h (3 Bft) O-NO 75 0 min 0 W/m 7,3 C 8,5 C 13,8 km/h (3 Bft)
31.05.2009 05:01 12,4 C 71 % 1025,5 hPa 0,0 l/m 14,5 km/h (3 Bft) NO 55 0 min 0 W/m 7,3 C 8,2 C 14,5 km/h (3 Bft)
31.05.2009 05:06 12,4 C 72 % 1025,5 hPa 0,0 l/m 6,5 km/h (2 Bft) O-NO 65 0 min 0 W/m 7,5 C 12,4 C 6,5 km/h (2 Bft)
31.05.2009 05:11 12,3 C 72 % 1025,5 hPa 0,0 l/m 5,6 km/h (2 Bft) O 90 0 min 0 W/m 7,4 C 12,3 C 5,6 km/h (2 Bft)
31.05.2009 05:16 12,3 C 72 % 1025,5 hPa 0,0 l/m 8,3 km/h (2 Bft) O-NO 65 0 min 0 W/m 7,4 C 11,1 C 8,3 km/h (2 Bft)
31.05.2009 05:21 12,3 C 72 % 1025,5 hPa 0,0 l/m 9,9 km/h (2 Bft) O 80 0 min 0 W/m 7,4 C 10,2 C 9,9 km/h (2 Bft)
31.05.2009 05:26 12,3 C 72 % 1025,5 hPa 0,0 l/m 9,0 km/h (2 Bft) NO 50 0 min 0 W/m 7,4 C 10,7 C 9,0 km/h (2 Bft)
31.05.2009 05:31 12,2 C 72 % 1025,5 hPa 0,0 l/m 11,1 km/h (2 Bft) N 350 0 min 0 W/m 7,3 C 9,5 C 11,1 km/h (2 Bft)
31.05.2009 05:36 12,2 C 73 % 1025,5 hPa 0,0 l/m 11,6 km/h (2 Bft) NO 45 0 min 0 W/m 7,5 C 9,2 C 11,6 km/h (2 Bft)
31.05.2009 05:41 12,2 C 73 % 1025,5 hPa 0,0 l/m 12,6 km/h (3 Bft) O 80 0 min 0 W/m 7,5 C 8,8 C 12,6 km/h (3 Bft)
31.05.2009 05:46 12,2 C 73 % 1025,5 hPa 0,0 l/m 8,6 km/h (2 Bft) N-NO 15 0 min 0 W/m 7,5 C 10,8 C 8,6 km/h (2 Bft)
31.05.2009 05:51 12,2 C 73 % 1025,5 hPa 0,0 l/m 11,9 km/h (2 Bft) NO 50 0 min 0 W/m 7,5 C 9,1 C 11,9 km/h (2 Bft)
31.05.2009 05:56 12,2 C 73 % 1025,5 hPa 0,0 l/m 7,0 km/h (2 Bft) NO 50 0 min 0 W/m 7,5 C 11,8 C 7,0 km/h (2 Bft)
31.05.2009 06:01 12,2 C 73 % 1025,5 hPa 0,0 l/m 6,0 km/h (2 Bft) N 5 0 min 0 W/m 7,5 C 12,2 C 6,0 km/h (2 Bft)
31.05.2009 06:06 12,2 C 74 % 1026,5 hPa 0,0 l/m 8,1 km/h (2 Bft) NO 40 0 min 0 W/m 7,7 C 11,1 C 8,1 km/h (2 Bft)
31.05.2009 06:11 12,2 C 74 % 1026,5 hPa 0,0 l/m 9,8 km/h (2 Bft) O 95 0 min 0 W/m 7,7 C 10,1 C 9,8 km/h (2 Bft)
31.05.2009 06:16 12,2 C 74 % 1026,5 hPa 0,0 l/m 6,2 km/h (2 Bft) N 5 0 min 0 W/m 7,7 C 12,2 C 6,2 km/h (2 Bft)
31.05.2009 06:21 12,2 C 74 % 1026,5 hPa 0,0 l/m 6,3 km/h (2 Bft) N-NW 335 0 min 0 W/m 7,7 C 12,2 C 6,3 km/h (2 Bft)
31.05.2009 06:26 12,2 C 75 % 1026,5 hPa 0,0 l/m 7,7 km/h (2 Bft) NW 320 0 min 0 W/m 7,9 C 11,3 C 7,7 km/h (2 Bft)
31.05.2009 06:31 12,3 C 75 % 1026,5 hPa 0,0 l/m 11,2 km/h (2 Bft) NO 45 0 min 0 W/m 8,0 C 9,5 C 11,2 km/h (2 Bft)
31.05.2009 06:36 12,4 C 75 % 1026,5 hPa 0,0 l/m 12,6 km/h (3 Bft) NO 50 0 min 0 W/m 8,1 C 9,0 C 12,6 km/h (3 Bft)
31.05.2009 06:41 12,4 C 75 % 1026,5 hPa 0,0 l/m 10,1 km/h (2 Bft) NO 35 0 min 0 W/m 8,1 C 10,2 C 10,1 km/h (2 Bft)
31.05.2009 06:46 12,4 C 75 % 1026,5 hPa 0,0 l/m 2,8 km/h (1 Bft) NO 55 0 min 0 W/m 8,1 C 12,4 C 2,8 km/h (1 Bft)
31.05.2009 06:51 12,5 C 75 % 1026,5 hPa 0,0 l/m 8,7 km/h (2 Bft) NO 50 0 min 0 W/m 8,2 C 11,1 C 8,7 km/h (2 Bft)
31.05.2009 06:56 12,6 C 76 % 1026,5 hPa 0,0 l/m 12,6 km/h (3 Bft) N-NO 25 0 min 0 W/m 8,5 C 9,2 C 12,6 km/h (3 Bft)
31.05.2009 07:01 12,7 C 76 % 1026,5 hPa 0,0 l/m 17,2 km/h (3 Bft) O-NO 70 0 min 0 W/m 8,6 C 7,6 C 17,2 km/h (3 Bft)
31.05.2009 07:06 12,7 C 76 % 1026,5 hPa 0,0 l/m 10,1 km/h (2 Bft) N-NO 25 0 min 0 W/m 8,6 C 10,5 C 10,1 km/h (2 Bft)
31.05.2009 07:11 12,8 C 76 % 1026,5 hPa 0,0 l/m 16,0 km/h (3 Bft) O-NO 70 0 min 0 W/m 8,7 C 8,2 C 16,0 km/h (3 Bft)
31.05.2009 07:16 13,0 C 76 % 1025,5 hPa 0,0 l/m 7,0 km/h (2 Bft) NO 50 0 min 0 W/m 8,9 C 12,6 C 7,0 km/h (2 Bft)
31.05.2009 07:21 13,0 C 76 % 1025,5 hPa 0,0 l/m 8,1 km/h (2 Bft) O-NO 60 0 min 0 W/m 8,9 C 11,9 C 8,1 km/h (2 Bft)
31.05.2009 07:26 13,0 C 76 % 1025,5 hPa 0,0 l/m 8,3 km/h (2 Bft) N-NO 25 0 min 0 W/m 8,9 C 11,8 C 8,3 km/h (2 Bft)
31.05.2009 07:31 13,1 C 76 % 1025,5 hPa 0,0 l/m 10,9 km/h (2 Bft) NO 45 0 min 0 W/m 9,0 C 10,6 C 10,9 km/h (2 Bft)
31.05.2009 07:36 13,2 C 76 % 1025,5 hPa 0,0 l/m 12,0 km/h (2 Bft) NO 55 0 min 0 W/m 9,1 C 10,2 C 12,0 km/h (2 Bft)
31.05.2009 07:41 13,3 C 76 % 1025,5 hPa 0,0 l/m 12,0 km/h (2 Bft) NO 55 0 min 0 W/m 9,2 C 10,3 C 12,0 km/h (2 Bft)
31.05.2009 07:46 13,4 C 76 % 1025,5 hPa 0,0 l/m 12,8 km/h (3 Bft) O-NO 60 0 min 0 W/m 9,3 C 10,1 C 12,8 km/h (3 Bft)
31.05.2009 07:51 13,5 C 76 % 1025,5 hPa 0,0 l/m 19,5 km/h (3 Bft) O 100 0 min 0 W/m 9,4 C 7,9 C 19,5 km/h (3 Bft)
31.05.2009 07:56 13,5 C 76 % 1026,5 hPa 0,0 l/m 13,9 km/h (3 Bft) O-NO 60 0 min 0 W/m 9,4 C 9,8 C 13,9 km/h (3 Bft)
31.05.2009 08:01 13,6 C 76 % 1026,5 hPa 0,0 l/m 16,8 km/h (3 Bft) O 90 0 min 0 W/m 9,4 C 8,9 C 16,8 km/h (3 Bft)
31.05.2009 08:06 13,6 C 76 % 1026,5 hPa 0,0 l/m 15,6 km/h (3 Bft) O-SO 110 0 min 0 W/m 9,4 C 9,3 C 15,6 km/h (3 Bft)
31.05.2009 08:11 13,8 C 76 % 1026,5 hPa 0,0 l/m 10,1 km/h (2 Bft) O 90 0 min 0 W/m 9,6 C 11,7 C 10,1 km/h (2 Bft)
31.05.2009 08:16 13,8 C 77 % 1025,5 hPa 0,0 l/m 15,7 km/h (3 Bft) O 95 0 min 0 W/m 9,8 C 9,5 C 15,7 km/h (3 Bft)
31.05.2009 08:21 13,9 C 77 % 1025,5 hPa 0,0 l/m 13,6 km/h (3 Bft) O-SO 115 0 min 0 W/m 9,9 C 10,4 C 13,6 km/h (3 Bft)
31.05.2009 08:26 13,9 C 76 % 1025,5 hPa 0,0 l/m 14,0 km/h (3 Bft) O 95 0 min 0 W/m 9,7 C 10,2 C 14,0 km/h (3 Bft)
31.05.2009 08:31 14,0 C 76 % 1025,5 hPa 0,0 l/m 13,7 km/h (3 Bft) O-NO 60 0 min 0 W/m 9,8 C 10,4 C 13,7 km/h (3 Bft)
31.05.2009 08:36 14,0 C 76 % 1025,5 hPa 0,0 l/m 12,2 km/h (2 Bft) NO 55 0 min 0 W/m 9,8 C 11,0 C 12,2 km/h (2 Bft)
31.05.2009 08:41 14,2 C 77 % 1025,5 hPa 0,0 l/m 11,5 km/h (2 Bft) O-NO 75 0 min 0 W/m 10,2 C 11,6 C 11,5 km/h (2 Bft)
31.05.2009 08:46 14,2 C 76 % 1025,5 hPa 0,0 l/m 20,2 km/h (4 Bft) NO 45 0 min 0 W/m 10,0 C 8,7 C 20,2 km/h (4 Bft)
31.05.2009 08:51 14,3 C 76 % 1025,5 hPa 0,0 l/m 12,5 km/h (2 Bft) O-NO 70 0 min 0 W/m 10,1 C 11,3 C 12,5 km/h (2 Bft)
31.05.2009 08:56 14,4 C 76 % 1025,5 hPa 0,0 l/m 13,0 km/h (3 Bft) NO 50 0 min 0 W/m 10,2 C 11,2 C 13,0 km/h (3 Bft)
31.05.2009 09:01 14,5 C 76 % 1025,5 hPa 0,0 l/m 12,5 km/h (2 Bft) O-NO 60 0 min 0 W/m 10,3 C 11,5 C 12,5 km/h (2 Bft)
31.05.2009 09:06 14,6 C 76 % 1025,5 hPa 0,0 l/m 13,3 km/h (3 Bft) O 100 0 min 0 W/m 10,4 C 11,3 C 13,3 km/h (3 Bft)
31.05.2009 09:11 14,7 C 76 % 1025,5 hPa 0,0 l/m 10,3 km/h (2 Bft) O 85 0 min 0 W/m 10,5 C 12,6 C 10,3 km/h (2 Bft)
31.05.2009 09:16 15,0 C 77 % 1025,5 hPa 0,0 l/m 15,0 km/h (3 Bft) O-SO 105 0 min 0 W/m 11,0 C 11,2 C 15,0 km/h (3 Bft)
31.05.2009 09:21 15,0 C 76 % 1026,5 hPa 0,0 l/m 15,3 km/h (3 Bft) O-SO 115 0 min 0 W/m 10,8 C 11,1 C 15,3 km/h (3 Bft)
31.05.2009 09:26 15,0 C 76 % 1026,5 hPa 0,0 l/m 10,0 km/h (2 Bft) SO 125 0 min 0 W/m 10,8 C 13,1 C 10,0 km/h (2 Bft)
31.05.2009 09:31 15,2 C 76 % 1026,5 hPa 0,0 l/m 12,8 km/h (3 Bft) O-SO 105 0 min 0 W/m 11,0 C 12,2 C 12,8 km/h (3 Bft)
31.05.2009 09:36 15,3 C 76 % 1026,5 hPa 0,0 l/m 11,8 km/h (2 Bft) O 100 0 min 0 W/m 11,1 C 12,7 C 11,8 km/h (2 Bft)
31.05.2009 09:41 15,5 C 76 % 1026,5 hPa 0,0 l/m 11,3 km/h (2 Bft) O 85 0 min 0 W/m 11,3 C 13,1 C 11,3 km/h (2 Bft)
31.05.2009 09:46 15,6 C 76 % 1026,5 hPa 0,0 l/m 11,3 km/h (2 Bft) O-SO 110 0 min 0 W/m 11,4 C 13,2 C 11,3 km/h (2 Bft)
31.05.2009 09:51 15,7 C 76 % 1026,5 hPa 0,0 l/m 11,3 km/h (2 Bft) O 85 0 min 0 W/m 11,5 C 13,3 C 11,3 km/h (2 Bft)
31.05.2009 09:56 15,9 C 75 % 1025,5 hPa 0,0 l/m 10,1 km/h (2 Bft) O-SO 115 0 min 0 W/m 11,5 C 14,1 C 10,1 km/h (2 Bft)
31.05.2009 10:01 16,0 C 75 % 1025,5 hPa 0,0 l/m 10,6 km/h (2 Bft) O 80 0 min 0 W/m 11,6 C 14,0 C 10,6 km/h (2 Bft)
31.05.2009 10:06 16,1 C 75 % 1025,5 hPa 0,0 l/m 14,6 km/h (3 Bft) O-NO 70 0 min 0 W/m 11,7 C 12,6 C 14,6 km/h (3 Bft)
31.05.2009 10:11 16,2 C 75 % 1025,5 hPa 0,0 l/m 8,7 km/h (2 Bft) O-NO 75 0 min 0 W/m 11,8 C 15,0 C 8,7 km/h (2 Bft)
31.05.2009 10:16 16,4 C 76 % 1025,5 hPa 0,0 l/m 11,6 km/h (2 Bft) NO 55 0 min 0 W/m 12,2 C 14,0 C 11,6 km/h (2 Bft)
31.05.2009 10:21 16,5 C 75 % 1025,5 hPa 0,0 l/m 10,9 km/h (2 Bft) O-NO 70 0 min 0 W/m 12,1 C 14,4 C 10,9 km/h (2 Bft)
31.05.2009 10:26 16,6 C 75 % 1025,5 hPa 0,0 l/m 10,0 km/h (2 Bft) O-NO 60 0 min 0 W/m 12,1 C 14,9 C 10,0 km/h (2 Bft)
31.05.2009 10:31 16,7 C 75 % 1025,5 hPa 0,0 l/m 12,6 km/h (3 Bft) O-NO 60 0 min 0 W/m 12,2 C 14,0 C 12,6 km/h (3 Bft)
31.05.2009 10:36 16,8 C 74 % 1025,5 hPa 0,0 l/m 13,6 km/h (3 Bft) O-NO 60 0 min 0 W/m 12,1 C 13,8 C 13,6 km/h (3 Bft)
31.05.2009 10:41 16,9 C 75 % 1025,5 hPa 0,0 l/m 8,2 km/h (2 Bft) N-NO 30 0 min 0 W/m 12,4 C 16,0 C 8,2 km/h (2 Bft)
31.05.2009 10:46 17,1 C 75 % 1025,5 hPa 0,0 l/m 12,7 km/h (3 Bft) NO 35 0 min 0 W/m 12,6 C 14,5 C 12,7 km/h (3 Bft)
31.05.2009 10:51 17,2 C 74 % 1025,5 hPa 0,0 l/m 15,3 km/h (3 Bft) O-NO 60 0 min 0 W/m 12,5 C 13,8 C 15,3 km/h (3 Bft)
31.05.2009 10:56 17,3 C 74 % 1025,5 hPa 0,0 l/m 13,1 km/h (3 Bft) O-NO 65 0 min 0 W/m 12,6 C 14,6 C 13,1 km/h (3 Bft)
31.05.2009 11:01 17,4 C 74 % 1025,5 hPa 0,0 l/m 11,7 km/h (2 Bft) NO 45 0 min 0 W/m 12,7 C 15,1 C 11,7 km/h (2 Bft)
31.05.2009 11:06 17,6 C 74 % 1025,5 hPa 0,0 l/m 12,3 km/h (2 Bft) N-NO 25 0 min 0 W/m 12,9 C 15,2 C 12,3 km/h (2 Bft)
31.05.2009 11:11 17,8 C 74 % 1025,5 hPa 0,0 l/m 14,4 km/h (3 Bft) N 10 0 min 0 W/m 13,1 C 14,8 C 14,4 km/h (3 Bft)
31.05.2009 11:16 17,8 C 74 % 1025,5 hPa 0,0 l/m 12,3 km/h (2 Bft) N-NO 15 0 min 0 W/m 13,1 C 15,4 C 12,3 km/h (2 Bft)
31.05.2009 11:21 18,1 C 74 % 1025,5 hPa 0,0 l/m 13,9 km/h (3 Bft) NO 45 0 min 0 W/m 13,4 C 15,3 C 13,9 km/h (3 Bft)
31.05.2009 11:26 18,2 C 73 % 1025,5 hPa 0,0 l/m 9,6 km/h (2 Bft) NO 55 0 min 0 W/m 13,3 C 16,8 C 9,6 km/h (2 Bft)
31.05.2009 11:31 18,4 C 73 % 1025,5 hPa 0,0 l/m 9,8 km/h (2 Bft) O-SO 105 0 min 0 W/m 13,5 C 16,9 C 9,8 km/h (2 Bft)
31.05.2009 11:36 18,6 C 74 % 1025,5 hPa 0,0 l/m 12,9 km/h (3 Bft) O-SO 105 0 min 0 W/m 13,9 C 16,1 C 12,9 km/h (3 Bft)
31.05.2009 11:41 18,8 C 72 % 1025,5 hPa 0,0 l/m 15,8 km/h (3 Bft) O-SO 110 0 min 0 W/m 13,6 C 15,6 C 15,8 km/h (3 Bft)
31.05.2009 11:46 18,9 C 72 % 1025,5 hPa 0,0 l/m 12,7 km/h (3 Bft) N-NO 30 0 min 0 W/m 13,7 C 16,6 C 12,7 km/h (3 Bft)
31.05.2009 11:51 19,1 C 72 % 1025,5 hPa 0,0 l/m 13,3 km/h (3 Bft) O 100 0 min 0 W/m 13,9 C 16,6 C 13,3 km/h (3 Bft)
31.05.2009 11:56 19,2 C 72 % 1025,5 hPa 0,0 l/m 13,8 km/h (3 Bft) O-SO 105 0 min 0 W/m 14,0 C 16,6 C 13,8 km/h (3 Bft)
31.05.2009 12:01 19,4 C 71 % 1025,5 hPa 0,0 l/m 14,5 km/h (3 Bft) O 85 0 min 0 W/m 14,0 C 16,6 C 14,5 km/h (3 Bft)
31.05.2009 12:06 19,4 C 70 % 1025,5 hPa 0,0 l/m 11,5 km/h (2 Bft) O-NO 75 0 min 0 W/m 13,8 C 17,5 C 11,5 km/h (2 Bft)
31.05.2009 12:11 19,6 C 70 % 1025,5 hPa 0,0 l/m 11,5 km/h (2 Bft) O-NO 75 0 min 0 W/m 14,0 C 17,7 C 11,5 km/h (2 Bft)
31.05.2009 12:16 19,8 C 71 % 1025,5 hPa 0,0 l/m 9,0 km/h (2 Bft) NO 40 0 min 0 W/m 14,4 C 18,8 C 9,0 km/h (2 Bft)
31.05.2009 12:21 19,9 C 70 % 1025,5 hPa 0,0 l/m 12,8 km/h (3 Bft) O-SO 105 0 min 0 W/m 14,3 C 17,7 C 12,8 km/h (3 Bft)
31.05.2009 12:26 20,0 C 69 % 1025,5 hPa 0,0 l/m 9,6 km/h (2 Bft) SO 135 0 min 0 W/m 14,1 C 18,8 C 9,6 km/h (2 Bft)
31.05.2009 12:31 20,2 C 69 % 1025,5 hPa 0,0 l/m 13,6 km/h (3 Bft) O-NO 70 0 min 0 W/m 14,3 C 17,8 C 13,6 km/h (3 Bft)
31.05.2009 12:36 20,4 C 69 % 1025,5 hPa 0,0 l/m 10,3 km/h (2 Bft) NO 45 0 min 0 W/m 14,5 C 19,0 C 10,3 km/h (2 Bft)
31.05.2009 12:41 20,5 C 69 % 1025,5 hPa 0,0 l/m 9,5 km/h (2 Bft) O 95 0 min 0 W/m 14,6 C 19,4 C 9,5 km/h (2 Bft)
31.05.2009 12:46 20,8 C 69 % 1025,5 hPa 0,0 l/m 8,7 km/h (2 Bft) O 85 0 min 0 W/m 14,9 C 19,9 C 8,7 km/h (2 Bft)
31.05.2009 12:51 20,9 C 69 % 1025,5 hPa 0,0 l/m 10,8 km/h (2 Bft) NO 55 0 min 0 W/m 15,0 C 19,4 C 10,8 km/h (2 Bft)
31.05.2009 12:56 21,1 C 67 % 1025,5 hPa 0,0 l/m 17,5 km/h (3 Bft) O-NO 65 0 min 0 W/m 14,7 C 18,1 C 17,5 km/h (3 Bft)
31.05.2009 13:01 21,3 C 67 % 1025,5 hPa 0,0 l/m 12,3 km/h (2 Bft) NO 50 0 min 0 W/m 14,9 C 19,5 C 12,3 km/h (2 Bft)
31.05.2009 13:06 21,4 C 66 % 1025,5 hPa 0,0 l/m 15,1 km/h (3 Bft) NO 55 0 min 0 W/m 14,8 C 18,9 C 15,1 km/h (3 Bft)
31.05.2009 13:11 21,5 C 66 % 1025,5 hPa 0,0 l/m 14,4 km/h (3 Bft) NO 55 0 min 0 W/m 14,9 C 19,2 C 14,4 km/h (3 Bft)
31.05.2009 13:16 21,6 C 66 % 1025,5 hPa 0,0 l/m 13,5 km/h (3 Bft) NO 45 0 min 0 W/m 15,0 C 19,5 C 13,5 km/h (3 Bft)
31.05.2009 13:21 21,8 C 66 % 1025,5 hPa 0,0 l/m 15,5 km/h (3 Bft) NO 45 0 min 0 W/m 15,2 C 19,3 C 15,5 km/h (3 Bft)
31.05.2009 13:26 21,8 C 66 % 1025,5 hPa 0,0 l/m 14,7 km/h (3 Bft) O 80 0 min 0 W/m 15,2 C 19,5 C 14,7 km/h (3 Bft)
31.05.2009 13:31 22,1 C 65 % 1025,5 hPa 0,0 l/m 19,8 km/h (3 Bft) O 95 0 min 0 W/m 15,2 C 18,9 C 19,8 km/h (3 Bft)
31.05.2009 13:36 22,4 C 66 % 1025,5 hPa 0,0 l/m 8,1 km/h (2 Bft) O-NO 65 0 min 0 W/m 15,7 C 21,8 C 8,1 km/h (2 Bft)
31.05.2009 13:41 22,4 C 65 % 1025,5 hPa 0,0 l/m 10,3 km/h (2 Bft) N 5 0 min 0 W/m 15,5 C 21,2 C 10,3 km/h (2 Bft)
31.05.2009 13:46 22,6 C 65 % 1024,5 hPa 0,0 l/m 13,1 km/h (3 Bft) NO 50 0 min 0 W/m 15,7 C 20,8 C 13,1 km/h (3 Bft)
31.05.2009 13:51 22,8 C 64 % 1024,5 hPa 0,0 l/m 11,1 km/h (2 Bft) O-NO 70 0 min 0 W/m 15,6 C 21,5 C 11,1 km/h (2 Bft)
31.05.2009 13:56 23,0 C 63 % 1024,5 hPa 0,0 l/m 9,2 km/h (2 Bft) NO 45 0 min 0 W/m 15,6 C 22,2 C 9,2 km/h (2 Bft)
31.05.2009 14:01 23,2 C 64 % 1024,5 hPa 0,0 l/m 15,9 km/h (3 Bft) O 90 0 min 0 W/m 16,0 C 21,0 C 15,9 km/h (3 Bft)
31.05.2009 14:06 23,4 C 63 % 1024,5 hPa 0,0 l/m 9,6 km/h (2 Bft) O-SO 115 0 min 0 W/m 15,9 C 22,5 C 9,6 km/h (2 Bft)
31.05.2009 14:11 23,6 C 62 % 1024,5 hPa 0,0 l/m 16,9 km/h (3 Bft) O 95 0 min 0 W/m 15,9 C 21,3 C 16,9 km/h (3 Bft)
31.05.2009 14:16 23,6 C 61 % 1024,5 hPa 0,0 l/m 11,8 km/h (2 Bft) O 95 0 min 0 W/m 15,6 C 22,2 C 11,8 km/h (2 Bft)
31.05.2009 14:21 23,7 C 60 % 1024,5 hPa 0,0 l/m 9,4 km/h (2 Bft) O 95 0 min 0 W/m 15,5 C 22,9 C 9,4 km/h (2 Bft)
31.05.2009 14:26 23,7 C 61 % 1024,5 hPa 0,0 l/m 13,0 km/h (3 Bft) O 100 0 min 0 W/m 15,7 C 22,1 C 13,0 km/h (3 Bft)
31.05.2009 14:31 23,9 C 61 % 1024,5 hPa 0,0 l/m 14,6 km/h (3 Bft) O-SO 115 0 min 0 W/m 15,9 C 22,0 C 14,6 km/h (3 Bft)
31.05.2009 14:36 24,1 C 60 % 1024,5 hPa 0,0 l/m 14,7 km/h (3 Bft) O-SO 105 0 min 0 W/m 15,8 C 22,3 C 14,7 km/h (3 Bft)
31.05.2009 14:41 24,3 C 61 % 1024,5 hPa 0,0 l/m 12,8 km/h (3 Bft) NO 35 0 min 0 W/m 16,3 C 22,8 C 12,8 km/h (3 Bft)
31.05.2009 14:46 24,4 C 59 % 1024,5 hPa 0,0 l/m 14,6 km/h (3 Bft) NO 45 0 min 0 W/m 15,9 C 22,6 C 14,6 km/h (3 Bft)
31.05.2009 14:51 24,5 C 60 % 1024,5 hPa 0,0 l/m 14,6 km/h (3 Bft) NO 45 0 min 0 W/m 16,2 C 22,8 C 14,6 km/h (3 Bft)
31.05.2009 14:56 24,8 C 59 % 1024,5 hPa 0,0 l/m 9,8 km/h (2 Bft) N-NO 30 0 min 0 W/m 16,2 C 24,0 C 9,8 km/h (2 Bft)
31.05.2009 15:01 25,0 C 58 % 1024,5 hPa 0,0 l/m 12,7 km/h (3 Bft) O-NO 70 0 min 0 W/m 16,1 C 23,7 C 12,7 km/h (3 Bft)
31.05.2009 15:06 25,0 C 57 % 1024,5 hPa 0,0 l/m 15,4 km/h (3 Bft) NO 55 0 min 0 W/m 15,9 C 23,2 C 15,4 km/h (3 Bft)
31.05.2009 15:11 25,1 C 58 % 1024,5 hPa 0,0 l/m 15,3 km/h (3 Bft) O 80 0 min 0 W/m 16,2 C 23,4 C 15,3 km/h (3 Bft)
31.05.2009 15:16 25,3 C 58 % 1024,5 hPa 0,0 l/m 13,7 km/h (3 Bft) NO 50 0 min 0 W/m 16,4 C 23,9 C 13,7 km/h (3 Bft)
31.05.2009 15:21 25,4 C 57 % 1024,5 hPa 0,0 l/m 17,6 km/h (3 Bft) O-NO 60 0 min 0 W/m 16,2 C 23,5 C 17,6 km/h (3 Bft)
31.05.2009 15:26 25,5 C 56 % 1024,5 hPa 0,0 l/m 15,1 km/h (3 Bft) O-NO 60 0 min 0 W/m 16,1 C 23,9 C 15,1 km/h (3 Bft)
31.05.2009 15:31 25,6 C 56 % 1024,5 hPa 0,0 l/m 17,5 km/h (3 Bft) NO 35 0 min 0 W/m 16,2 C 23,7 C 17,5 km/h (3 Bft)
31.05.2009 15:36 25,6 C 55 % 1024,5 hPa 0,0 l/m 13,4 km/h (3 Bft) NO 55 0 min 0 W/m 15,9 C 24,3 C 13,4 km/h (3 Bft)
31.05.2009 15:41 25,8 C 57 % 1024,5 hPa 0,0 l/m 2,3 km/h (1 Bft) N-NW 345 0 min 0 W/m 16,6 C 25,8 C 2,3 km/h (1 Bft)
31.05.2009 15:46 25,9 C 56 % 1024,5 hPa 0,0 l/m 17,0 km/h (3 Bft) N 355 0 min 0 W/m 16,4 C 24,2 C 17,0 km/h (3 Bft)
31.05.2009 15:51 25,9 C 54 % 1024,5 hPa 0,0 l/m 12,5 km/h (2 Bft) NO 35 0 min 0 W/m 15,9 C 24,7 C 12,5 km/h (2 Bft)
31.05.2009 15:56 25,9 C 55 % 1023,5 hPa 0,0 l/m 15,6 km/h (3 Bft) O-NO 60 0 min 0 W/m 16,2 C 24,3 C 15,6 km/h (3 Bft)
31.05.2009 16:01 26,0 C 55 % 1023,5 hPa 0,0 l/m 17,8 km/h (3 Bft) NO 50 0 min 0 W/m 16,2 C 24,2 C 17,8 km/h (3 Bft)
31.05.2009 16:06 26,1 C 55 % 1023,5 hPa 0,0 l/m 14,8 km/h (3 Bft) NO 55 0 min 0 W/m 16,3 C 24,7 C 14,8 km/h (3 Bft)
31.05.2009 16:11 26,2 C 54 % 1023,5 hPa 0,0 l/m 17,5 km/h (3 Bft) NO 50 0 min 0 W/m 16,1 C 24,5 C 17,5 km/h (3 Bft)
31.05.2009 16:16 26,3 C 53 % 1023,5 hPa 0,0 l/m 17,5 km/h (3 Bft) O-NO 70 0 min 0 W/m 15,9 C 24,6 C 17,5 km/h (3 Bft)
31.05.2009 16:21 26,4 C 54 % 1023,5 hPa 0,0 l/m 12,2 km/h (2 Bft) NO 35 0 min 0 W/m 16,3 C 25,4 C 12,2 km/h (2 Bft)
31.05.2009 16:26 26,4 C 53 % 1023,5 hPa 0,0 l/m 10,7 km/h (2 Bft) O-NO 60 0 min 0 W/m 16,0 C 25,6 C 10,7 km/h (2 Bft)
31.05.2009 16:31 26,4 C 53 % 1023,5 hPa 0,0 l/m 15,6 km/h (3 Bft) N 10 0 min 0 W/m 16,0 C 24,9 C 15,6 km/h (3 Bft)
31.05.2009 16:36 26,3 C 54 % 1023,5 hPa 0,0 l/m 14,0 km/h (3 Bft) NO 35 0 min 0 W/m 16,2 C 25,0 C 14,0 km/h (3 Bft)
31.05.2009 16:41 26,2 C 53 % 1023,5 hPa 0,0 l/m 15,5 km/h (3 Bft) O-NO 60 0 min 0 W/m 15,8 C 24,7 C 15,5 km/h (3 Bft)
31.05.2009 16:46 26,2 C 53 % 1023,5 hPa 0,0 l/m 16,0 km/h (3 Bft) O-NO 60 0 min 0 W/m 15,8 C 24,6 C 16,0 km/h (3 Bft)
31.05.2009 16:51 26,3 C 53 % 1023,5 hPa 0,0 l/m 13,8 km/h (3 Bft) NO 35 0 min 0 W/m 15,9 C 25,0 C 13,8 km/h (3 Bft)
31.05.2009 16:56 26,4 C 54 % 1023,5 hPa 0,0 l/m 16,0 km/h (3 Bft) N-NO 30 0 min 0 W/m 16,3 C 24,9 C 16,0 km/h (3 Bft)
31.05.2009 17:01 26,4 C 54 % 1023,5 hPa 0,0 l/m 16,7 km/h (3 Bft) O-NO 60 0 min 0 W/m 16,3 C 24,8 C 16,7 km/h (3 Bft)
31.05.2009 17:06 26,3 C 53 % 1023,5 hPa 0,0 l/m 13,4 km/h (3 Bft) O-NO 65 0 min 0 W/m 15,9 C 25,1 C 13,4 km/h (3 Bft)
31.05.2009 17:11 26,2 C 54 % 1023,5 hPa 0,0 l/m 21,8 km/h (4 Bft) NO 40 0 min 0 W/m 16,1 C 24,0 C 21,8 km/h (4 Bft)
31.05.2009 17:16 26,2 C 54 % 1023,5 hPa 0,0 l/m 14,3 km/h (3 Bft) N-NO 15 0 min 0 W/m 16,1 C 24,9 C 14,3 km/h (3 Bft)
31.05.2009 17:21 26,2 C 54 % 1023,5 hPa 0,0 l/m 14,6 km/h (3 Bft) NO 35 0 min 0 W/m 16,1 C 24,8 C 14,6 km/h (3 Bft)
31.05.2009 17:26 26,2 C 54 % 1023,5 hPa 0,0 l/m 13,5 km/h (3 Bft) NO 50 0 min 0 W/m 16,1 C 25,0 C 13,5 km/h (3 Bft)
31.05.2009 17:31 25,9 C 55 % 1023,5 hPa 0,0 l/m 8,9 km/h (2 Bft) NO 55 0 min 0 W/m 16,2 C 25,4 C 8,9 km/h (2 Bft)
31.05.2009 17:36 25,9 C 55 % 1023,5 hPa 0,0 l/m 19,8 km/h (3 Bft) NO 40 0 min 0 W/m 16,2 C 23,8 C 19,8 km/h (3 Bft)
31.05.2009 17:41 25,5 C 56 % 1023,5 hPa 0,0 l/m 15,8 km/h (3 Bft) O-NO 60 0 min 0 W/m 16,1 C 23,8 C 15,8 km/h (3 Bft)
31.05.2009 17:46 25,4 C 56 % 1023,5 hPa 0,0 l/m 17,7 km/h (3 Bft) NO 45 0 min 0 W/m 16,0 C 23,4 C 17,7 km/h (3 Bft)
31.05.2009 17:51 25,3 C 55 % 1023,5 hPa 0,0 l/m 18,9 km/h (3 Bft) NO 45 0 min 0 W/m 15,6 C 23,2 C 18,9 km/h (3 Bft)
31.05.2009 17:56 24,9 C 56 % 1023,5 hPa 0,0 l/m 15,4 km/h (3 Bft) N-NO 25 0 min 0 W/m 15,5 C 23,1 C 15,4 km/h (3 Bft)
31.05.2009 18:01 24,7 C 57 % 1023,5 hPa 0,0 l/m 19,0 km/h (3 Bft) NO 45 0 min 0 W/m 15,6 C 22,4 C 19,0 km/h (3 Bft)
31.05.2009 18:06 24,6 C 58 % 1023,5 hPa 0,0 l/m 16,9 km/h (3 Bft) NO 45 0 min 0 W/m 15,8 C 22,5 C 16,9 km/h (3 Bft)
31.05.2009 18:11 24,3 C 58 % 1023,5 hPa 0,0 l/m 18,5 km/h (3 Bft) NO 55 0 min 0 W/m 15,5 C 22,0 C 18,5 km/h (3 Bft)
31.05.2009 18:16 23,9 C 59 % 1022,5 hPa 0,0 l/m 16,9 km/h (3 Bft) NO 55 0 min 0 W/m 15,4 C 21,7 C 16,9 km/h (3 Bft)
31.05.2009 18:21 23,8 C 59 % 1022,5 hPa 0,0 l/m 17,1 km/h (3 Bft) O-NO 60 0 min 0 W/m 15,3 C 21,5 C 17,1 km/h (3 Bft)
31.05.2009 18:26 23,6 C 60 % 1022,5 hPa 0,0 l/m 14,8 km/h (3 Bft) N 10 0 min 0 W/m 15,4 C 21,6 C 14,8 km/h (3 Bft)
31.05.2009 18:31 23,5 C 60 % 1022,5 hPa 0,0 l/m 19,9 km/h (4 Bft) N-NO 30 0 min 0 W/m 15,3 C 20,7 C 19,9 km/h (4 Bft)
31.05.2009 18:36 23,6 C 60 % 1022,5 hPa 0,0 l/m 14,1 km/h (3 Bft) NO 35 0 min 0 W/m 15,4 C 21,8 C 14,1 km/h (3 Bft)
31.05.2009 18:41 23,5 C 60 % 1022,5 hPa 0,0 l/m 13,8 km/h (3 Bft) N-NO 25 0 min 0 W/m 15,3 C 21,7 C 13,8 km/h (3 Bft)
31.05.2009 18:46 23,6 C 60 % 1022,5 hPa 0,0 l/m 20,3 km/h (4 Bft) NO 55 0 min 0 W/m 15,4 C 20,8 C 20,3 km/h (4 Bft)
31.05.2009 18:51 23,3 C 60 % 1022,5 hPa 0,0 l/m 11,6 km/h (2 Bft) O-NO 60 0 min 0 W/m 15,1 C 21,9 C 11,6 km/h (2 Bft)
31.05.2009 18:56 23,2 C 60 % 1022,5 hPa 0,0 l/m 15,9 km/h (3 Bft) NO 35 0 min 0 W/m 15,0 C 21,0 C 15,9 km/h (3 Bft)
31.05.2009 19:01 23,1 C 60 % 1022,5 hPa 0,0 l/m 20,0 km/h (4 Bft) NO 50 0 min 0 W/m 14,9 C 20,2 C 20,0 km/h (4 Bft)
31.05.2009 19:06 22,8 C 61 % 1022,5 hPa 0,0 l/m 11,4 km/h (2 Bft) N-NO 30 0 min 0 W/m 14,9 C 21,4 C 11,4 km/h (2 Bft)
31.05.2009 19:11 22,8 C 62 % 1022,5 hPa 0,0 l/m 13,6 km/h (3 Bft) N 5 0 min 0 W/m 15,1 C 20,9 C 13,6 km/h (3 Bft)
31.05.2009 19:16 22,7 C 62 % 1022,5 hPa 0,0 l/m 20,3 km/h (4 Bft) N 5 0 min 0 W/m 15,0 C 19,7 C 20,3 km/h (4 Bft)
31.05.2009 19:21 22,5 C 62 % 1022,5 hPa 0,0 l/m 13,8 km/h (3 Bft) NO 55 0 min 0 W/m 14,8 C 20,5 C 13,8 km/h (3 Bft)
31.05.2009 19:26 22,4 C 62 % 1022,5 hPa 0,0 l/m 16,0 km/h (3 Bft) NO 50 0 min 0 W/m 14,8 C 20,0 C 16,0 km/h (3 Bft)
31.05.2009 19:31 22,2 C 62 % 1022,5 hPa 0,0 l/m 13,8 km/h (3 Bft) O 90 0 min 0 W/m 14,6 C 20,2 C 13,8 km/h (3 Bft)
31.05.2009 19:36 22,0 C 62 % 1022,5 hPa 0,0 l/m 12,1 km/h (2 Bft) O 80 0 min 0 W/m 14,4 C 20,3 C 12,1 km/h (2 Bft)
31.05.2009 19:41 22,0 C 62 % 1022,5 hPa 0,0 l/m 13,5 km/h (3 Bft) O-NO 70 0 min 0 W/m 14,4 C 20,0 C 13,5 km/h (3 Bft)
31.05.2009 19:46 21,8 C 63 % 1022,5 hPa 0,0 l/m 15,5 km/h (3 Bft) N-NO 25 0 min 0 W/m 14,4 C 19,3 C 15,5 km/h (3 Bft)
31.05.2009 19:51 21,7 C 63 % 1022,5 hPa 0,0 l/m 7,2 km/h (2 Bft) O-NO 70 0 min 0 W/m 14,3 C 21,4 C 7,2 km/h (2 Bft)
31.05.2009 19:56 21,6 C 64 % 1022,5 hPa 0,0 l/m 17,0 km/h (3 Bft) O 100 0 min 0 W/m 14,5 C 18,8 C 17,0 km/h (3 Bft)
31.05.2009 20:01 21,6 C 64 % 1023,5 hPa 0,0 l/m 9,2 km/h (2 Bft) O-NO 60 0 min 0 W/m 14,5 C 20,6 C 9,2 km/h (2 Bft)
31.05.2009 20:06 21,5 C 65 % 1023,5 hPa 0,0 l/m 12,4 km/h (2 Bft) O 80 0 min 0 W/m 14,6 C 19,7 C 12,4 km/h (2 Bft)
31.05.2009 20:11 21,4 C 64 % 1023,5 hPa 0,0 l/m 3,7 km/h (1 Bft) O-NO 60 0 min 0 W/m 14,3 C 21,4 C 3,7 km/h (1 Bft)
31.05.2009 20:16 21,4 C 64 % 1023,5 hPa 0,0 l/m 11,6 km/h (2 Bft) O 90 0 min 0 W/m 14,3 C 19,7 C 11,6 km/h (2 Bft)
31.05.2009 20:21 21,4 C 64 % 1022,5 hPa 0,0 l/m 4,5 km/h (1 Bft) O-NO 75 0 min 0 W/m 14,3 C 21,4 C 4,5 km/h (1 Bft)
31.05.2009 20:26 21,4 C 64 % 1022,5 hPa 0,0 l/m 12,8 km/h (3 Bft) O-NO 70 0 min 0 W/m 14,3 C 19,4 C 12,8 km/h (3 Bft)
31.05.2009 20:31 21,4 C 64 % 1023,5 hPa 0,0 l/m 9,8 km/h (2 Bft) O-NO 65 0 min 0 W/m 14,3 C 20,2 C 9,8 km/h (2 Bft)
31.05.2009 20:36 21,4 C 64 % 1023,5 hPa 0,0 l/m 4,6 km/h (1 Bft) O-NO 65 0 min 0 W/m 14,3 C 21,4 C 4,6 km/h (1 Bft)
31.05.2009 20:41 21,2 C 65 % 1023,5 hPa 0,0 l/m 8,7 km/h (2 Bft) O 85 0 min 0 W/m 14,4 C 20,4 C 8,7 km/h (2 Bft)
31.05.2009 20:46 21,2 C 65 % 1023,5 hPa 0,0 l/m 8,4 km/h (2 Bft) NO 35 0 min 0 W/m 14,4 C 20,5 C 8,4 km/h (2 Bft)
31.05.2009 20:51 21,2 C 66 % 1023,5 hPa 0,0 l/m 7,9 km/h (2 Bft) N-NW 330 0 min 0 W/m 14,6 C 20,6 C 7,9 km/h (2 Bft)
31.05.2009 20:56 21,2 C 66 % 1023,5 hPa 0,0 l/m 8,9 km/h (2 Bft) N 360 0 min 0 W/m 14,6 C 20,3 C 8,9 km/h (2 Bft)
31.05.2009 21:01 21,1 C 66 % 1023,5 hPa 0,0 l/m 3,8 km/h (1 Bft) NO 35 0 min 0 W/m 14,5 C 21,1 C 3,8 km/h (1 Bft)
31.05.2009 21:06 21,0 C 66 % 1023,5 hPa 0,0 l/m 1,0 km/h (0 Bft) N-NO 20 0 min 0 W/m 14,4 C 21,0 C 1,0 km/h (0 Bft)
31.05.2009 21:11 21,0 C 66 % 1023,5 hPa 0,0 l/m 12,6 km/h (3 Bft) NO 40 0 min 0 W/m 14,4 C 19,0 C 12,6 km/h (3 Bft)
31.05.2009 21:16 21,0 C 66 % 1023,5 hPa 0,0 l/m 7,4 km/h (2 Bft) N 350 0 min 0 W/m 14,4 C 20,6 C 7,4 km/h (2 Bft)
31.05.2009 21:21 21,0 C 66 % 1023,5 hPa 0,0 l/m 6,7 km/h (2 Bft) O 100 0 min 0 W/m 14,4 C 20,9 C 6,7 km/h (2 Bft)
31.05.2009 21:26 21,0 C 66 % 1023,5 hPa 0,0 l/m 7,7 km/h (2 Bft) O-NO 60 0 min 0 W/m 14,4 C 20,5 C 7,7 km/h (2 Bft)
31.05.2009 21:31 21,0 C 66 % 1023,5 hPa 0,0 l/m 5,7 km/h (2 Bft) NO 45 0 min 0 W/m 14,4 C 21,0 C 5,7 km/h (2 Bft)
31.05.2009 21:36 21,0 C 69 % 1023,5 hPa 0,0 l/m 7,9 km/h (2 Bft) NO 55 0 min 0 W/m 15,1 C 20,4 C 7,9 km/h (2 Bft)
31.05.2009 21:40 21,0 C 69 % 1023,5 hPa 0,0 l/m 7,7 km/h (2 Bft) NO 35 0 min 0 W/m 15,1 C 20,5 C 7,7 km/h (2 Bft)
31.05.2009 21:46 19,9 C 69 % 1023,5 hPa 0,0 l/m 7,1 km/h (2 Bft) NO 45 0 min 0 W/m 14,0 C 19,6 C 7,1 km/h (2 Bft)
31.05.2009 21:51 19,9 C 69 % 1023,5 hPa 0,0 l/m 7,4 km/h (2 Bft) NO 45 0 min 0 W/m 14,0 C 19,5 C 7,4 km/h (2 Bft)
31.05.2009 21:56 19,9 C 69 % 1023,5 hPa 0,0 l/m 5,8 km/h (2 Bft) N-NO 25 0 min 0 W/m 14,0 C 19,9 C 5,8 km/h (2 Bft)
31.05.2009 22:01 19,4 C 70 % 1023,5 hPa 0,0 l/m 12,6 km/h (3 Bft) NO 55 0 min 0 W/m 13,8 C 17,2 C 12,6 km/h (3 Bft)
31.05.2009 22:06 19,3 C 71 % 1023,5 hPa 0,0 l/m 5,8 km/h (2 Bft) N-NO 30 0 min 0 W/m 13,9 C 19,3 C 5,8 km/h (2 Bft)
31.05.2009 22:11 19,2 C 71 % 1023,5 hPa 0,0 l/m 1,3 km/h (1 Bft) N-NO 30 0 min 0 W/m 13,8 C 19,2 C 1,3 km/h (1 Bft)
31.05.2009 22:16 19,2 C 71 % 1023,5 hPa 0,0 l/m 6,5 km/h (2 Bft) N 350 0 min 0 W/m 13,8 C 19,2 C 6,5 km/h (2 Bft)
31.05.2009 22:21 19,2 C 71 % 1023,5 hPa 0,0 l/m 9,0 km/h (2 Bft) W 275 0 min 0 W/m 13,8 C 18,1 C 9,0 km/h (2 Bft)
31.05.2009 22:26 19,0 C 71 % 1023,5 hPa 0,0 l/m 3,1 km/h (1 Bft) SW 230 0 min 0 W/m 13,6 C 19,0 C 3,1 km/h (1 Bft)
31.05.2009 22:31 19,0 C 71 % 1023,5 hPa 0,0 l/m 6,1 km/h (2 Bft) NW 310 0 min 0 W/m 13,6 C 19,0 C 6,1 km/h (2 Bft)
31.05.2009 22:36 18,8 C 71 % 1023,5 hPa 0,0 l/m 0,9 km/h (0 Bft) N-NW 340 0 min 0 W/m 13,4 C 18,8 C 0,9 km/h (0 Bft)
31.05.2009 22:41 18,8 C 71 % 1023,5 hPa 0,0 l/m 1,3 km/h (1 Bft) N 5 0 min 0 W/m 13,4 C 18,8 C 1,3 km/h (1 Bft)
31.05.2009 22:46 18,6 C 72 % 1023,5 hPa 0,0 l/m 5,2 km/h (1 Bft) N-NO 30 0 min 0 W/m 13,4 C 18,6 C 5,2 km/h (1 Bft)
31.05.2009 22:51 18,6 C 72 % 1023,5 hPa 0,0 l/m 0,2 km/h (0 Bft) N-NW 345 0 min 0 W/m 13,4 C 18,6 C 0,2 km/h (0 Bft)
31.05.2009 22:56 18,5 C 72 % 1023,5 hPa 0,0 l/m 0,7 km/h (0 Bft) N 10 0 min 0 W/m 13,4 C 18,5 C 0,7 km/h (0 Bft)
31.05.2009 23:01 18,4 C 72 % 1023,5 hPa 0,0 l/m 0,4 km/h (0 Bft) NW 310 0 min 0 W/m 13,3 C 18,4 C 0,4 km/h (0 Bft)
31.05.2009 23:06 18,4 C 72 % 1023,5 hPa 0,0 l/m 0,1 km/h (0 Bft) N 10 0 min 0 W/m 13,3 C 18,4 C 0,1 km/h (0 Bft)
31.05.2009 23:11 18,4 C 72 % 1023,5 hPa 0,0 l/m 4,2 km/h (1 Bft) NO 45 0 min 0 W/m 13,3 C 18,4 C 4,2 km/h (1 Bft)
31.05.2009 23:16 18,4 C 72 % 1023,5 hPa 0,0 l/m 3,3 km/h (1 Bft) O-NO 75 0 min 0 W/m 13,3 C 18,4 C 3,3 km/h (1 Bft)
31.05.2009 23:21 18,4 C 72 % 1023,5 hPa 0,0 l/m 1,4 km/h (1 Bft) O-NO 60 0 min 0 W/m 13,3 C 18,4 C 1,4 km/h (1 Bft)
31.05.2009 23:26 18,4 C 72 % 1023,5 hPa 0,0 l/m 7,0 km/h (2 Bft) O 100 0 min 0 W/m 13,3 C 18,1 C 7,0 km/h (2 Bft)
31.05.2009 23:32 18,4 C 72 % 1023,5 hPa 0,0 l/m 5,2 km/h (1 Bft) N-NO 25 0 min 0 W/m 13,3 C 18,4 C 5,2 km/h (1 Bft)
31.05.2009 23:37 17,8 C 73 % 1023,5 hPa 0,0 l/m 6,0 km/h (2 Bft) O-NO 65 0 min 0 W/m 12,9 C 17,8 C 6,0 km/h (2 Bft)
31.05.2009 23:42 17,6 C 74 % 1023,5 hPa 0,0 l/m 1,8 km/h (1 Bft) N-NO 25 0 min 0 W/m 12,9 C 17,6 C 1,8 km/h (1 Bft)
31.05.2009 23:47 17,4 C 74 % 1023,5 hPa 0,0 l/m 8,6 km/h (2 Bft) O-NO 75 0 min 0 W/m 12,7 C 16,4 C 8,6 km/h (2 Bft)
31.05.2009 23:52 17,4 C 74 % 1023,5 hPa 0,0 l/m 8,5 km/h (2 Bft) NO 35 0 min 0 W/m 12,7 C 16,4 C 8,5 km/h (2 Bft)
31.05.2009 23:57 17,4 C 74 % 1023,5 hPa 0,0 l/m 5,9 km/h (2 Bft) SO 135 0 min 0 W/m 12,7 C 17,4 C 5,9 km/h (2 Bft)
_ Min-Zeit 05:31 16:16 18:16 - 23:06 - - - - 03:41 04:51 23:06
Minimum _ 12,2 C 53 % 1022,5 hPa - 0,1 km/h (0 Bft) - - - - 6,8 C 7,4 C 0,1 km/h (0 Bft)
_ Max-Zeit 16:21 08:16 06:06 00:01 00:41 - - 00:01 00:01 15:41 15:41 00:41
Maximum _ 26,4 C 77 % 1026,5 hPa 0,0 l/m 23,2 km/h
NO (4 Bft)
- - 0 min 0 W/m 16,6 C 25,8 C 23,2 km/h
NO (4 Bft)
Durchschnitt _ 18,2 C 67 % 1024,7 hPa #0,0 l/m 11,9 km/h (2 Bft) NO - #0 min. 0 W/m 12,0 C 16,2 C 11,9 km/h (2 Bft)
copyright by Holger Just